Pagina principale
METAR-TAF:

METAR-TAF

Aeroporti :

Belmar / Farmingdale, New Jersey, Stati Uniti

latitudine: 40-11N, longitudine: 074-08W, altezza: 48 m

Osservazione

Il bollettino è stato emesso 26 minuti fa, alle 22:56 UTC
Vento 9 kt da ovest/nord-ovest
Temperature 0°C
Umidità 51%
Pressione 1020 hPa
Visibilità: 16.1 km
Cielo sereno

METAR: KBLM 182256Z AUTO 30009KT 10SM CLR 00/M09 A3013 RMK AO2 SLP210 T00001089 FZRANO

Ora: 18:22 (23:22 UTC)


TAF: mancante

Osservazioni e previsioni meteorologiche di più di 4000 aeroporti (messaggi METAR e TAF).

Le stazioni disponibili sono rappresentate dai dischi gialli e rossi sulla carta.

Puntare il mouse per vedere il nome della stazione.

Clicca sopra per visualizzare le osservazioni e previsioni meteorologiche.

Per cambiare la mappa : fare clic sui pulsanti verdi con una croce nera per ingrandire, il pulsante verde con un trattino per diminuire, o sulla freccia verde per le mappe adiacenti.


METAR-TAF: